sensor_id;sensor_type;location;lat;lon;timestamp;pressure;altitude;pressure_sealevel;temperature;humidity
17254;BME280;32542;52.832;13.816;2022-12-31T00:00:45;100532.75;;;19.68;50.17
17254;BME280;32542;52.832;13.816;2022-12-31T00:03:49;100519.47;;;19.68;50.06
17254;BME280;32542;52.832;13.816;2022-12-31T00:06:53;100538.06;;;19.68;50.14
17254;BME280;32542;52.832;13.816;2022-12-31T00:09:56;100537.19;;;19.67;50.02
17254;BME280;32542;52.832;13.816;2022-12-31T00:12:59;100545.16;;;19.67;50.11
17254;BME280;32542;52.832;13.816;2022-12-31T00:16:07;100554.00;;;19.68;50.06
17254;BME280;32542;52.832;13.816;2022-12-31T00:19:13;100551.41;;;19.66;49.95
17254;BME280;32542;52.832;13.816;2022-12-31T00:22:17;100568.22;;;19.67;50.15
17254;BME280;32542;52.832;13.816;2022-12-31T00:25:20;100566.50;;;19.66;50.19
17254;BME280;32542;52.832;13.816;2022-12-31T00:28:23;100565.63;;;19.65;50.12
17254;BME280;32542;52.832;13.816;2022-12-31T00:31:27;100555.00;;;19.65;50.18
17254;BME280;32542;52.832;13.816;2022-12-31T00:34:30;100584.22;;;19.65;50.16
17254;BME280;32542;52.832;13.816;2022-12-31T00:37:34;100577.13;;;19.66;50.14
17254;BME280;32542;52.832;13.816;2022-12-31T00:40:38;100566.50;;;19.66;50.28
17254;BME280;32542;52.832;13.816;2022-12-31T00:43:41;100569.16;;;19.66;50.15
17254;BME280;32542;52.832;13.816;2022-12-31T00:46:44;100564.69;;;19.66;50.05
17254;BME280;32542;52.832;13.816;2022-12-31T00:49:47;100569.16;;;19.66;50.03
17254;BME280;32542;52.832;13.816;2022-12-31T00:52:51;100561.19;;;19.66;50.15
17254;BME280;32542;52.832;13.816;2022-12-31T00:55:58;100571.81;;;19.66;50.12
17254;BME280;32542;52.832;13.816;2022-12-31T00:59:02;100569.16;;;19.66;50.20
17254;BME280;32542;52.832;13.816;2022-12-31T01:02:05;100580.69;;;19.65;50.22
17254;BME280;32542;52.832;13.816;2022-12-31T01:05:09;100563.91;;;19.64;50.12
17254;BME280;32542;52.832;13.816;2022-12-31T01:08:13;100591.31;;;19.65;50.15
17254;BME280;32542;52.832;13.816;2022-12-31T01:11:16;100586.88;;;19.65;50.18
17254;BME280;32542;52.832;13.816;2022-12-31T01:14:23;100606.41;;;19.64;50.15
17254;BME280;32542;52.832;13.816;2022-12-31T01:17:26;100609.91;;;19.65;50.14
17254;BME280;32542;52.832;13.816;2022-12-31T01:20:29;100617.88;;;19.65;50.20
17254;BME280;32542;52.832;13.816;2022-12-31T01:23:34;100628.44;;;19.66;50.13
17254;BME280;32542;52.832;13.816;2022-12-31T01:26:37;100625.78;;;19.66;50.09
17254;BME280;32542;52.832;13.816;2022-12-31T01:29:40;100620.47;;;19.66;50.06
17254;BME280;32542;52.832;13.816;2022-12-31T01:32:43;100622.28;;;19.66;50.19
17254;BME280;32542;52.832;13.816;2022-12-31T01:35:46;100622.34;;;19.64;50.05
17254;BME280;32542;52.832;13.816;2022-12-31T01:38:51;100630.25;;;19.66;50.12
17254;BME280;32542;52.832;13.816;2022-12-31T01:41:54;100633.81;;;19.65;50.15
17254;BME280;32542;52.832;13.816;2022-12-31T01:44:57;100640.94;;;19.64;50.14
17254;BME280;32542;52.832;13.816;2022-12-31T01:48:00;100638.28;;;19.64;50.13
17254;BME280;32542;52.832;13.816;2022-12-31T01:51:04;100630.38;;;19.63;50.25
17254;BME280;32542;52.832;13.816;2022-12-31T01:54:12;100639.22;;;19.63;50.10
17254;BME280;32542;52.832;13.816;2022-12-31T01:57:16;100625.00;;;19.64;50.27
17254;BME280;32542;52.832;13.816;2022-12-31T02:00:20;100618.75;;;19.65;50.19
17254;BME280;32542;52.832;13.816;2022-12-31T02:03:24;100625.84;;;19.65;50.13
17254;BME280;32542;52.832;13.816;2022-12-31T02:06:31;100631.16;;;19.65;50.08
17254;BME280;32542;52.832;13.816;2022-12-31T02:09:40;100624.94;;;19.66;50.12
17254;BME280;32542;52.832;13.816;2022-12-31T02:12:43;100633.81;;;19.65;50.23
17254;BME280;32542;52.832;13.816;2022-12-31T02:15:59;100640.09;;;19.64;50.27
17254;BME280;32542;52.832;13.816;2022-12-31T02:23:00;100646.25;;;19.64;50.23
17254;BME280;32542;52.832;13.816;2022-12-31T02:26:27;100644.53;;;19.63;50.22
17254;BME280;32542;52.832;13.816;2022-12-31T02:29:57;100643.66;;;19.63;50.07
17254;BME280;32542;52.832;13.816;2022-12-31T02:33:11;100635.63;;;19.64;50.12
17254;BME280;32542;52.832;13.816;2022-12-31T02:36:21;100643.59;;;19.64;50.23
17254;BME280;32542;52.832;13.816;2022-12-31T02:39:25;100649.75;;;19.65;50.16
17254;BME280;32542;52.832;13.816;2022-12-31T02:42:29;100634.78;;;19.64;50.17
17254;BME280;32542;52.832;13.816;2022-12-31T02:45:37;100640.00;;;19.65;50.07
17254;BME280;32542;52.832;13.816;2022-12-31T02:48:46;100631.16;;;19.65;50.15
17254;BME280;32542;52.832;13.816;2022-12-31T02:51:55;100625.00;;;19.64;50.18
17254;BME280;32542;52.832;13.816;2022-12-31T02:55:06;100617.03;;;19.64;50.14
17254;BME280;32542;52.832;13.816;2022-12-31T02:58:19;100606.41;;;19.64;50.02
17254;BME280;32542;52.832;13.816;2022-12-31T03:01:48;100602.94;;;19.62;50.20
17254;BME280;32542;52.832;13.816;2022-12-31T03:05:11;100616.31;;;19.61;50.20
17254;BME280;32542;52.832;13.816;2022-12-31T03:08:20;100618.88;;;19.62;50.10
17254;BME280;32542;52.832;13.816;2022-12-31T03:11:23;100622.41;;;19.63;50.26
17254;BME280;32542;52.832;13.816;2022-12-31T03:14:40;100618.88;;;19.62;50.24
17254;BME280;32542;52.832;13.816;2022-12-31T03:17:45;100624.16;;;19.64;50.17
17254;BME280;32542;52.832;13.816;2022-12-31T03:20:49;100623.19;;;19.65;50.09
17254;BME280;32542;52.832;13.816;2022-12-31T03:24:10;100616.09;;;19.65;50.15
17254;BME280;32542;52.832;13.816;2022-12-31T03:27:30;100623.19;;;19.65;49.94
17254;BME280;32542;52.832;13.816;2022-12-31T03:30:34;100616.09;;;19.65;50.17
17254;BME280;32542;52.832;13.816;2022-12-31T03:33:40;100622.28;;;19.66;50.09
17254;BME280;32542;52.832;13.816;2022-12-31T03:36:43;100616.03;;;19.67;49.96
17254;BME280;32542;52.832;13.816;2022-12-31T03:39:46;100610.72;;;19.67;50.16
17254;BME280;32542;52.832;13.816;2022-12-31T03:42:49;100611.50;;;19.69;50.13
17254;BME280;32542;52.832;13.816;2022-12-31T03:45:53;100615.91;;;19.70;50.11
17254;BME280;32542;52.832;13.816;2022-12-31T03:48:57;100605.28;;;19.70;49.98
17254;BME280;32542;52.832;13.816;2022-12-31T03:52:00;100604.31;;;19.71;50.06
17254;BME280;32542;52.832;13.816;2022-12-31T03:55:05;100601.66;;;19.71;50.07
17254;BME280;32542;52.832;13.816;2022-12-31T03:58:08;100605.13;;;19.73;50.05
17254;BME280;32542;52.832;13.816;2022-12-31T04:01:11;100606.94;;;19.72;50.04
17254;BME280;32542;52.832;13.816;2022-12-31T04:04:15;100602.47;;;19.73;50.14
17254;BME280;32542;52.832;13.816;2022-12-31T04:07:18;100605.13;;;19.73;50.06
17254;BME280;32542;52.832;13.816;2022-12-31T04:10:21;100603.41;;;19.72;50.07
17254;BME280;32542;52.832;13.816;2022-12-31T04:13:24;100596.34;;;19.71;50.05
17254;BME280;32542;52.832;13.816;2022-12-31T04:16:27;100605.19;;;19.71;49.96
17254;BME280;32542;52.832;13.816;2022-12-31T04:19:31;100614.94;;;19.71;50.08
17254;BME280;32542;52.832;13.816;2022-12-31T04:22:34;100619.47;;;19.69;50.05
17254;BME280;32542;52.832;13.816;2022-12-31T04:25:37;100622.91;;;19.71;50.10
17254;BME280;32542;52.832;13.816;2022-12-31T04:28:40;100615.03;;;19.69;49.93
17254;BME280;32542;52.832;13.816;2022-12-31T04:31:43;100626.53;;;19.70;50.10
17254;BME280;32542;52.832;13.816;2022-12-31T04:34:47;100633.63;;;19.69;50.11
17254;BME280;32542;52.832;13.816;2022-12-31T04:37:50;100637.16;;;19.70;50.10
17254;BME280;32542;52.832;13.816;2022-12-31T04:40:53;100632.75;;;19.69;50.26
17254;BME280;32542;52.832;13.816;2022-12-31T04:44:13;100623.06;;;19.68;50.20
17254;BME280;32542;52.832;13.816;2022-12-31T04:47:16;100616.91;;;19.67;50.19
17254;BME280;32542;52.832;13.816;2022-12-31T04:50:25;100624.00;;;19.67;50.10
17254;BME280;32542;52.832;13.816;2022-12-31T04:53:28;100614.31;;;19.66;50.21
17254;BME280;32542;52.832;13.816;2022-12-31T04:56:32;100603.69;;;19.66;50.18
17254;BME280;32542;52.832;13.816;2022-12-31T04:59:37;100593.06;;;19.66;50.39
17254;BME280;32542;52.832;13.816;2022-12-31T05:02:40;100593.06;;;19.66;50.25
17254;BME280;32542;52.832;13.816;2022-12-31T05:05:44;100586.88;;;19.65;50.08
17254;BME280;32542;52.832;13.816;2022-12-31T05:08:49;100593.91;;;19.66;50.12
17254;BME280;32542;52.832;13.816;2022-12-31T05:11:52;100587.75;;;19.66;50.27
17254;BME280;32542;52.832;13.816;2022-12-31T05:14:55;100597.50;;;19.65;50.23
17254;BME280;32542;52.832;13.816;2022-12-31T05:17:58;100580.63;;;19.66;50.12
17254;BME280;32542;52.832;13.816;2022-12-31T05:21:02;100570.00;;;19.66;50.20
17254;BME280;32542;52.832;13.816;2022-12-31T05:24:06;100561.19;;;19.66;50.22
17254;BME280;32542;52.832;13.816;2022-12-31T05:27:09;100555.88;;;19.66;50.29
17254;BME280;32542;52.832;13.816;2022-12-31T05:30:12;100566.50;;;19.66;50.16
17254;BME280;32542;52.832;13.816;2022-12-31T05:33:16;100577.13;;;19.66;50.34
17254;BME280;32542;52.832;13.816;2022-12-31T05:36:20;100586.88;;;19.65;50.18
17254;BME280;32542;52.832;13.816;2022-12-31T05:39:23;100585.09;;;19.66;50.41
17254;BME280;32542;52.832;13.816;2022-12-31T05:42:26;100588.59;;;19.66;50.31
17254;BME280;32542;52.832;13.816;2022-12-31T05:45:29;100584.16;;;19.67;50.26
17254;BME280;32542;52.832;13.816;2022-12-31T05:48:32;100582.34;;;19.67;50.27
17254;BME280;32542;52.832;13.816;2022-12-31T05:51:36;100593.84;;;19.68;50.32
17254;BME280;32542;52.832;13.816;2022-12-31T05:54:39;100602.66;;;19.68;50.19
17254;BME280;32542;52.832;13.816;2022-12-31T05:57:42;100596.50;;;19.68;50.09
17254;BME280;32542;52.832;13.816;2022-12-31T06:00:45;100591.19;;;19.68;50.20
17254;BME280;32542;52.832;13.816;2022-12-31T06:03:48;100594.69;;;19.68;50.10
17254;BME280;32542;52.832;13.816;2022-12-31T06:06:53;100588.53;;;19.68;50.18
17254;BME280;32542;52.832;13.816;2022-12-31T06:09:55;100585.88;;;19.68;50.19
17254;BME280;32542;52.832;13.816;2022-12-31T06:12:58;100587.66;;;19.67;50.16
17254;BME280;32542;52.832;13.816;2022-12-31T06:16:04;100584.16;;;19.67;50.25
17254;BME280;32542;52.832;13.816;2022-12-31T06:19:07;100574.41;;;19.67;50.14
17254;BME280;32542;52.832;13.816;2022-12-31T06:22:11;100584.06;;;19.68;50.19
17254;BME280;32542;52.832;13.816;2022-12-31T06:25:15;100580.56;;;19.68;50.35
17254;BME280;32542;52.832;13.816;2022-12-31T06:28:17;100582.28;;;19.69;50.13
17254;BME280;32542;52.832;13.816;2022-12-31T06:31:21;100567.28;;;19.68;50.20
17254;BME280;32542;52.832;13.816;2022-12-31T06:34:24;100554.00;;;19.68;50.14
17254;BME280;32542;52.832;13.816;2022-12-31T06:37:28;100537.19;;;19.67;50.16
17254;BME280;32542;52.832;13.816;2022-12-31T06:40:31;100515.09;;;19.67;50.27
17254;BME280;32542;52.832;13.816;2022-12-31T06:43:34;100513.38;;;19.66;50.14
17254;BME280;32542;52.832;13.816;2022-12-31T06:46:37;100528.44;;;19.65;50.31
17254;BME280;32542;52.832;13.816;2022-12-31T06:49:40;100523.13;;;19.65;50.22
17254;BME280;32542;52.832;13.816;2022-12-31T06:52:45;100524.91;;;19.65;50.26
17254;BME280;32542;52.832;13.816;2022-12-31T06:55:48;100529.31;;;19.66;50.21
17254;BME280;32542;52.832;13.816;2022-12-31T06:58:52;100521.34;;;19.66;50.18
17254;BME280;32542;52.832;13.816;2022-12-31T07:02:25;100525.72;;;19.67;50.18
17254;BME280;32542;52.832;13.816;2022-12-31T07:05:38;100522.19;;;19.66;50.16
17254;BME280;32542;52.832;13.816;2022-12-31T07:08:49;100540.78;;;19.66;50.26
17254;BME280;32542;52.832;13.816;2022-12-31T07:12:03;100531.97;;;19.66;50.23
17254;BME280;32542;52.832;13.816;2022-12-31T07:15:10;100525.72;;;19.67;50.15
17254;BME280;32542;52.832;13.816;2022-12-31T07:18:24;100515.09;;;19.67;50.22
17254;BME280;32542;52.832;13.816;2022-12-31T07:21:35;100534.63;;;19.66;50.12
17254;BME280;32542;52.832;13.816;2022-12-31T07:24:40;100512.50;;;19.65;50.22
17254;BME280;32542;52.832;13.816;2022-12-31T07:28:04;100516.94;;;19.65;50.41
17254;BME280;32542;52.832;13.816;2022-12-31T07:31:13;100511.63;;;19.65;50.32
17254;BME280;32542;52.832;13.816;2022-12-31T07:34:24;100532.88;;;19.65;50.33
17254;BME280;32542;52.832;13.816;2022-12-31T07:37:34;100530.22;;;19.65;50.33
17254;BME280;32542;52.832;13.816;2022-12-31T07:40:51;100515.16;;;19.65;50.31
17254;BME280;32542;52.832;13.816;2022-12-31T07:44:02;100516.03;;;19.66;50.33
17254;BME280;32542;52.832;13.816;2022-12-31T07:47:19;100520.41;;;19.67;50.31
17254;BME280;32542;52.832;13.816;2022-12-31T07:50:23;100515.09;;;19.67;50.43
17254;BME280;32542;52.832;13.816;2022-12-31T07:53:26;100531.88;;;19.67;50.32
17254;BME280;32542;52.832;13.816;2022-12-31T07:56:31;100534.53;;;19.67;50.35
17254;BME280;32542;52.832;13.816;2022-12-31T07:59:43;100527.50;;;19.66;50.29
17254;BME280;32542;52.832;13.816;2022-12-31T08:03:09;100527.50;;;19.66;50.32
17254;BME280;32542;52.832;13.816;2022-12-31T08:06:20;100540.78;;;19.66;50.27
17254;BME280;32542;52.832;13.816;2022-12-31T08:09:38;100546.97;;;19.67;50.25
17254;BME280;32542;52.832;13.816;2022-12-31T08:12:46;100562.91;;;19.67;50.24
17254;BME280;32542;52.832;13.816;2022-12-31T08:15:51;100554.94;;;19.67;50.31
17254;BME280;32542;52.832;13.816;2022-12-31T08:18:55;100555.78;;;19.67;50.36
17254;BME280;32542;52.832;13.816;2022-12-31T08:22:21;100552.19;;;19.68;50.38
17254;BME280;32542;52.832;13.816;2022-12-31T08:25:30;100539.78;;;19.69;50.31
17254;BME280;32542;52.832;13.816;2022-12-31T08:28:51;100529.16;;;19.69;50.23
17254;BME280;32542;52.832;13.816;2022-12-31T08:32:00;100530.09;;;19.68;50.23
17254;BME280;32542;52.832;13.816;2022-12-31T08:35:16;100522.13;;;19.68;50.32
17254;BME280;32542;52.832;13.816;2022-12-31T08:38:26;100520.31;;;19.68;50.37
17254;BME280;32542;52.832;13.816;2022-12-31T08:41:37;100519.47;;;19.68;50.30
17254;BME280;32542;52.832;13.816;2022-12-31T08:44:50;100510.63;;;19.67;50.30
17254;BME280;32542;52.832;13.816;2022-12-31T08:47:59;100519.47;;;19.68;50.32
17254;BME280;32542;52.832;13.816;2022-12-31T08:51:04;100515.09;;;19.67;50.40
17254;BME280;32542;52.832;13.816;2022-12-31T08:54:09;100520.41;;;19.67;50.36
17254;BME280;32542;52.832;13.816;2022-12-31T08:57:19;100513.22;;;19.69;50.17
17254;BME280;32542;52.832;13.816;2022-12-31T09:00:26;100523.84;;;19.69;50.33
17254;BME280;32542;52.832;13.816;2022-12-31T09:03:54;100523.84;;;19.69;50.42
17254;BME280;32542;52.832;13.816;2022-12-31T09:07:01;100517.66;;;19.68;50.35
17254;BME280;32542;52.832;13.816;2022-12-31T09:10:14;100534.47;;;19.69;50.31
17254;BME280;32542;52.832;13.816;2022-12-31T09:13:24;100534.47;;;19.69;50.32
17254;BME280;32542;52.832;13.816;2022-12-31T09:16:37;100541.56;;;19.68;50.18
17254;BME280;32542;52.832;13.816;2022-12-31T09:19:43;100536.34;;;19.67;50.36
17254;BME280;32542;52.832;13.816;2022-12-31T09:22:47;100538.06;;;19.68;50.49
17254;BME280;32542;52.832;13.816;2022-12-31T09:25:57;100541.66;;;19.67;50.36
17254;BME280;32542;52.832;13.816;2022-12-31T09:29:04;100552.28;;;19.67;50.38
17254;BME280;32542;52.832;13.816;2022-12-31T09:32:21;100558.44;;;19.67;50.40
17254;BME280;32542;52.832;13.816;2022-12-31T09:35:31;100554.00;;;19.68;50.49
17254;BME280;32542;52.832;13.816;2022-12-31T09:38:42;100559.31;;;19.68;50.34
17254;BME280;32542;52.832;13.816;2022-12-31T09:42:03;100551.28;;;19.69;50.34
17254;BME280;32542;52.832;13.816;2022-12-31T09:45:45;100550.41;;;19.69;50.25
17254;BME280;32542;52.832;13.816;2022-12-31T09:49:17;100559.31;;;19.68;50.35
17254;BME280;32542;52.832;13.816;2022-12-31T09:52:36;100566.34;;;19.69;50.46
17254;BME280;32542;52.832;13.816;2022-12-31T09:55:48;100558.44;;;19.67;50.45
17254;BME280;32542;52.832;13.816;2022-12-31T09:58:59;100566.34;;;19.69;50.39
17254;BME280;32542;52.832;13.816;2022-12-31T10:02:14;100576.09;;;19.68;50.24
17254;BME280;32542;52.832;13.816;2022-12-31T10:05:41;100564.63;;;19.68;50.42
17254;BME280;32542;52.832;13.816;2022-12-31T10:09:04;100578.84;;;19.67;50.39
17254;BME280;32542;52.832;13.816;2022-12-31T10:12:45;100576.09;;;19.68;50.32
17254;BME280;32542;52.832;13.816;2022-12-31T10:16:09;100595.56;;;19.69;50.34
17254;BME280;32542;52.832;13.816;2022-12-31T10:19:40;100593.78;;;19.69;50.40
17254;BME280;32542;52.832;13.816;2022-12-31T10:23:10;100586.72;;;19.68;50.44
17254;BME280;32542;52.832;13.816;2022-12-31T10:26:30;100586.72;;;19.68;50.45
17254;BME280;32542;52.832;13.816;2022-12-31T10:29:44;100569.94;;;19.68;50.42
17254;BME280;32542;52.832;13.816;2022-12-31T10:32:58;100582.28;;;19.69;50.43
17254;BME280;32542;52.832;13.816;2022-12-31T10:36:08;100585.00;;;19.67;50.60
17254;BME280;32542;52.832;13.816;2022-12-31T10:39:24;100587.59;;;19.69;50.38
17254;BME280;32542;52.832;13.816;2022-12-31T10:46:35;100591.19;;;19.68;50.50
17254;BME280;32542;52.832;13.816;2022-12-31T10:50:03;100592.91;;;19.69;50.41
17254;BME280;32542;52.832;13.816;2022-12-31T10:53:38;100593.78;;;19.69;50.55
17254;BME280;32542;52.832;13.816;2022-12-31T10:57:15;100599.97;;;19.70;50.36
17254;BME280;32542;52.832;13.816;2022-12-31T11:00:28;100603.53;;;19.69;50.37
17254;BME280;32542;52.832;13.816;2022-12-31T11:07:38;100606.19;;;19.69;50.41
17254;BME280;32542;52.832;13.816;2022-12-31T11:11:14;100615.91;;;19.70;50.39
17254;BME280;32542;52.832;13.816;2022-12-31T11:18:07;100617.75;;;19.68;50.58
17254;BME280;32542;52.832;13.816;2022-12-31T11:21:20;100604.47;;;19.68;50.40
17254;BME280;32542;52.832;13.816;2022-12-31T11:24:40;100614.16;;;19.69;50.48
17254;BME280;32542;52.832;13.816;2022-12-31T11:28:03;100605.28;;;19.70;50.39
17254;BME280;32542;52.832;13.816;2022-12-31T11:31:29;100606.97;;;19.71;50.25
17254;BME280;32542;52.832;13.816;2022-12-31T11:34:50;100601.66;;;19.71;50.28
17254;BME280;32542;52.832;13.816;2022-12-31T11:38:01;100605.28;;;19.70;50.57
17254;BME280;32542;52.832;13.816;2022-12-31T11:41:13;100593.78;;;19.69;50.46
17254;BME280;32542;52.832;13.816;2022-12-31T11:44:31;100594.66;;;19.70;50.45
17254;BME280;32542;52.832;13.816;2022-12-31T11:47:54;100592.81;;;19.70;50.42
17254;BME280;32542;52.832;13.816;2022-12-31T11:51:35;100587.59;;;19.69;50.50
17254;BME280;32542;52.832;13.816;2022-12-31T11:55:01;100572.53;;;19.69;50.54
17254;BME280;32542;52.832;13.816;2022-12-31T11:58:13;100577.84;;;19.69;50.55
17254;BME280;32542;52.832;13.816;2022-12-31T12:01:19;100582.28;;;19.69;50.38
17254;BME280;32542;52.832;13.816;2022-12-31T12:04:25;100574.31;;;19.69;50.54
17254;BME280;32542;52.832;13.816;2022-12-31T12:07:28;100560.13;;;19.70;50.61
17254;BME280;32542;52.832;13.816;2022-12-31T12:10:37;100559.16;;;19.71;50.48
17254;BME280;32542;52.832;13.816;2022-12-31T12:13:42;100560.13;;;19.70;50.50
17254;BME280;32542;52.832;13.816;2022-12-31T12:16:45;100554.81;;;19.70;50.32
17254;BME280;32542;52.832;13.816;2022-12-31T12:19:53;100549.50;;;19.70;50.43
17254;BME280;32542;52.832;13.816;2022-12-31T12:23:00;100561.91;;;19.69;50.37
17254;BME280;32542;52.832;13.816;2022-12-31T12:26:04;100554.81;;;19.70;50.52
17254;BME280;32542;52.832;13.816;2022-12-31T12:29:09;100553.06;;;19.69;50.34
17254;BME280;32542;52.832;13.816;2022-12-31T12:32:15;100549.50;;;19.70;50.56
17254;BME280;32542;52.832;13.816;2022-12-31T12:35:23;100541.50;;;19.70;50.52
17254;BME280;32542;52.832;13.816;2022-12-31T12:38:27;100545.09;;;19.69;50.46
17254;BME280;32542;52.832;13.816;2022-12-31T12:41:30;100539.78;;;19.69;50.44
17254;BME280;32542;52.832;13.816;2022-12-31T12:44:33;100543.22;;;19.71;50.52
17254;BME280;32542;52.832;13.816;2022-12-31T12:47:39;100537.91;;;19.71;50.40
17254;BME280;32542;52.832;13.816;2022-12-31T12:50:47;100535.19;;;19.72;50.45
17254;BME280;32542;52.832;13.816;2022-12-31T12:53:56;100536.13;;;19.71;50.49
17254;BME280;32542;52.832;13.816;2022-12-31T12:57:07;100527.28;;;19.71;50.48
17254;BME280;32542;52.832;13.816;2022-12-31T13:00:19;100532.59;;;19.71;50.51
17254;BME280;32542;52.832;13.816;2022-12-31T13:07:21;100506.03;;;19.71;50.40
17254;BME280;32542;52.832;13.816;2022-12-31T13:10:45;100509.63;;;19.70;50.55
17254;BME280;32542;52.832;13.816;2022-12-31T13:13:57;100513.22;;;19.69;50.50
17254;BME280;32542;52.832;13.816;2022-12-31T13:17:23;100523.75;;;19.70;50.43
17254;BME280;32542;52.832;13.816;2022-12-31T13:20:33;100519.31;;;19.71;50.46
17254;BME280;32542;52.832;13.816;2022-12-31T13:23:43;100519.31;;;19.71;50.51
17254;BME280;32542;52.832;13.816;2022-12-31T13:26:54;100529.03;;;19.72;50.50
17254;BME280;32542;52.832;13.816;2022-12-31T13:30:01;100521.97;;;19.71;50.53
17254;BME280;32542;52.832;13.816;2022-12-31T13:33:08;100535.25;;;19.71;50.47
17254;BME280;32542;52.832;13.816;2022-12-31T13:36:18;100537.91;;;19.71;50.65
17254;BME280;32542;52.832;13.816;2022-12-31T13:39:25;100544.09;;;19.71;50.37
17254;BME280;32542;52.832;13.816;2022-12-31T13:42:35;100541.44;;;19.71;50.50
17254;BME280;32542;52.832;13.816;2022-12-31T13:45:43;100548.53;;;19.71;50.59
17254;BME280;32542;52.832;13.816;2022-12-31T13:48:50;100545.88;;;19.71;50.52
17254;BME280;32542;52.832;13.816;2022-12-31T13:51:59;100546.84;;;19.70;50.56
17254;BME280;32542;52.832;13.816;2022-12-31T13:55:11;100547.66;;;19.70;50.48
17254;BME280;32542;52.832;13.816;2022-12-31T13:58:20;100556.50;;;19.71;50.64
17254;BME280;32542;52.832;13.816;2022-12-31T14:01:27;100572.44;;;19.71;50.51
17254;BME280;32542;52.832;13.816;2022-12-31T14:04:37;100640.59;;;19.72;50.56
17254;BME280;32542;52.832;13.816;2022-12-31T14:07:46;100637.00;;;19.73;50.53
17254;BME280;32542;52.832;13.816;2022-12-31T14:10:59;100694.59;;;19.72;50.49
17254;BME280;32542;52.832;13.816;2022-12-31T14:14:12;100696.31;;;19.73;50.56
17254;BME280;32542;52.832;13.816;2022-12-31T14:17:22;100714.03;;;19.73;50.54
17254;BME280;32542;52.832;13.816;2022-12-31T14:20:35;100729.97;;;19.73;50.54
17254;BME280;32542;52.832;13.816;2022-12-31T14:23:49;100725.59;;;19.72;50.55
17254;BME280;32542;52.832;13.816;2022-12-31T14:26:59;100717.63;;;19.72;50.54
17254;BME280;32542;52.832;13.816;2022-12-31T14:30:06;100720.28;;;19.72;50.56
17254;BME280;32542;52.832;13.816;2022-12-31T14:33:29;100713.25;;;19.71;50.54
17254;BME280;32542;52.832;13.816;2022-12-31T14:36:43;100713.25;;;19.71;50.62
17254;BME280;32542;52.832;13.816;2022-12-31T14:39:53;100730.91;;;19.72;50.67
17254;BME280;32542;52.832;13.816;2022-12-31T14:43:09;100748.56;;;19.73;50.53
17254;BME280;32542;52.832;13.816;2022-12-31T14:46:20;100737.09;;;19.72;50.57
17254;BME280;32542;52.832;13.816;2022-12-31T14:49:37;100736.22;;;19.72;50.58
17254;BME280;32542;52.832;13.816;2022-12-31T14:52:49;100743.25;;;19.73;50.59
17254;BME280;32542;52.832;13.816;2022-12-31T14:55:56;100749.53;;;19.72;50.58
17254;BME280;32542;52.832;13.816;2022-12-31T14:59:01;100756.53;;;19.73;50.53
17254;BME280;32542;52.832;13.816;2022-12-31T15:02:24;100761.84;;;19.73;50.57
17254;BME280;32542;52.832;13.816;2022-12-31T15:05:29;100733.56;;;19.72;50.60
17254;BME280;32542;52.832;13.816;2022-12-31T15:08:40;100742.47;;;19.71;50.68
17254;BME280;32542;52.832;13.816;2022-12-31T15:12:02;100741.53;;;19.72;50.51
17254;BME280;32542;52.832;13.816;2022-12-31T15:15:28;100741.53;;;19.72;50.63
17254;BME280;32542;52.832;13.816;2022-12-31T15:18:45;100752.19;;;19.72;50.63
17254;BME280;32542;52.832;13.816;2022-12-31T15:21:57;100746.88;;;19.72;50.52
17254;BME280;32542;52.832;13.816;2022-12-31T15:25:19;100744.13;;;19.73;50.64
17254;BME280;32542;52.832;13.816;2022-12-31T15:28:34;100759.19;;;19.73;50.49
17254;BME280;32542;52.832;13.816;2022-12-31T15:31:44;100751.22;;;19.73;50.57
17254;BME280;32542;52.832;13.816;2022-12-31T15:34:59;100737.09;;;19.72;50.60
17254;BME280;32542;52.832;13.816;2022-12-31T15:38:17;100745.91;;;19.73;50.49
17254;BME280;32542;52.832;13.816;2022-12-31T15:41:26;100741.53;;;19.72;50.43
17254;BME280;32542;52.832;13.816;2022-12-31T15:44:34;100758.38;;;19.72;50.46
17254;BME280;32542;52.832;13.816;2022-12-31T15:47:47;100743.34;;;19.71;50.60
17254;BME280;32542;52.832;13.816;2022-12-31T15:50:56;100760.16;;;19.72;50.58
17254;BME280;32542;52.832;13.816;2022-12-31T15:54:01;100752.19;;;19.72;50.75
17254;BME280;32542;52.832;13.816;2022-12-31T15:57:11;100758.38;;;19.72;50.58
17254;BME280;32542;52.832;13.816;2022-12-31T16:00:17;100757.50;;;19.72;50.57
17254;BME280;32542;52.832;13.816;2022-12-31T16:03:24;100759.19;;;19.73;50.60
17254;BME280;32542;52.832;13.816;2022-12-31T16:06:28;100757.50;;;19.72;50.50
17254;BME280;32542;52.832;13.816;2022-12-31T16:09:33;100736.22;;;19.72;50.56
17254;BME280;32542;52.832;13.816;2022-12-31T16:12:38;100736.22;;;19.72;50.67
17254;BME280;32542;52.832;13.816;2022-12-31T16:15:47;100733.56;;;19.72;50.52
17254;BME280;32542;52.832;13.816;2022-12-31T16:18:54;100737.09;;;19.72;50.58
17254;BME280;32542;52.832;13.816;2022-12-31T16:22:00;100736.22;;;19.72;50.42
17254;BME280;32542;52.832;13.816;2022-12-31T16:25:05;100745.13;;;19.71;50.52
17254;BME280;32542;52.832;13.816;2022-12-31T16:28:30;100742.47;;;19.71;50.62
17254;BME280;32542;52.832;13.816;2022-12-31T16:31:33;100742.47;;;19.71;50.76
17254;BME280;32542;52.832;13.816;2022-12-31T16:34:37;100741.53;;;19.72;50.65
17254;BME280;32542;52.832;13.816;2022-12-31T16:37:40;100745.13;;;19.71;50.71